Terminal Aerodrome Forecast
Issued by NWS Blacksburg, VA

Home | Current Version | Previous Version | Text Only | Print | Product List | Glossary On
Versions: 1 2 3 4 5 6 7 8 9 10 11 12 13 14 15 16 17 18 19 20 21 22 23 24 25 26 27 28 29 30 31 32 33 34 35 36 37 38 39 40 41 42 43 44 45 46 47 48 49 50
325
FTUS41 KRNK 010305 AAB
TAFDAN
TAF AMD
KDAN 010305Z 0103/0124 06005KT 4SM SHRA VCTS BKN004 OVC015CB
     FM010600 07005KT 4SM -RA BR OVC005
     FM011100 12004KT 4SM -RA BR OVC008 WS020/19033KT
     FM011600 20008KT 6SM -SHRA BR OVC015
     FM012200 25010KT P6SM -SHRA BKN025=

USA.gov is the U.S. government's official web portal to all federal, state and local government web resources and services.